sensor_id;sensor_type;location;lat;lon;timestamp;P1;durP1;ratioP1;P2;durP2;ratioP2
76725;SDS011;65651;53.154;17.916;2023-05-07T00:00:13;14.90;;;10.00;;
76725;SDS011;65651;53.154;17.916;2023-05-07T00:03:05;13.20;;;9.50;;
76725;SDS011;65651;53.154;17.916;2023-05-07T00:05:33;16.70;;;10.10;;
76725;SDS011;65651;53.154;17.916;2023-05-07T00:08:00;14.20;;;9.90;;
76725;SDS011;65651;53.154;17.916;2023-05-07T00:10:27;19.20;;;10.30;;
76725;SDS011;65651;53.154;17.916;2023-05-07T00:12:54;13.40;;;8.80;;
76725;SDS011;65651;53.154;17.916;2023-05-07T00:15:23;18.40;;;9.80;;
76725;SDS011;65651;53.154;17.916;2023-05-07T00:17:50;21.50;;;11.10;;
76725;SDS011;65651;53.154;17.916;2023-05-07T00:20:18;19.10;;;11.70;;
76725;SDS011;65651;53.154;17.916;2023-05-07T00:22:46;18.70;;;11.10;;
76725;SDS011;65651;53.154;17.916;2023-05-07T00:25:13;17.40;;;10.90;;
76725;SDS011;65651;53.154;17.916;2023-05-07T00:27:43;20.20;;;12.40;;
76725;SDS011;65651;53.154;17.916;2023-05-07T00:30:11;20.40;;;12.30;;
76725;SDS011;65651;53.154;17.916;2023-05-07T00:32:39;17.70;;;11.90;;
76725;SDS011;65651;53.154;17.916;2023-05-07T00:35:07;20.60;;;12.30;;
76725;SDS011;65651;53.154;17.916;2023-05-07T00:37:34;18.00;;;11.50;;
76725;SDS011;65651;53.154;17.916;2023-05-07T00:40:02;18.50;;;11.30;;
76725;SDS011;65651;53.154;17.916;2023-05-07T00:42:31;17.80;;;11.20;;
76725;SDS011;65651;53.154;17.916;2023-05-07T00:44:59;23.30;;;12.40;;
76725;SDS011;65651;53.154;17.916;2023-05-07T00:47:26;17.20;;;10.70;;
76725;SDS011;65651;53.154;17.916;2023-05-07T00:49:54;19.10;;;10.60;;
76725;SDS011;65651;53.154;17.916;2023-05-07T00:52:21;17.20;;;10.90;;
76725;SDS011;65651;53.154;17.916;2023-05-07T00:54:52;15.20;;;9.30;;
76725;SDS011;65651;53.154;17.916;2023-05-07T00:57:21;13.80;;;9.00;;
76725;SDS011;65651;53.154;17.916;2023-05-07T00:59:52;16.10;;;10.50;;
76725;SDS011;65651;53.154;17.916;2023-05-07T01:02:19;16.30;;;9.50;;
76725;SDS011;65651;53.154;17.916;2023-05-07T01:04:47;16.30;;;10.10;;
76725;SDS011;65651;53.154;17.916;2023-05-07T01:07:15;13.90;;;9.00;;
76725;SDS011;65651;53.154;17.916;2023-05-07T01:09:42;14.20;;;9.20;;
76725;SDS011;65651;53.154;17.916;2023-05-07T01:12:10;16.80;;;10.00;;
76725;SDS011;65651;53.154;17.916;2023-05-07T01:14:37;20.40;;;9.80;;
76725;SDS011;65651;53.154;17.916;2023-05-07T01:17:05;16.00;;;9.10;;
76725;SDS011;65651;53.154;17.916;2023-05-07T01:19:33;21.50;;;12.00;;
76725;SDS011;65651;53.154;17.916;2023-05-07T01:22:03;18.50;;;10.70;;
76725;SDS011;65651;53.154;17.916;2023-05-07T01:24:37;16.80;;;11.00;;
76725;SDS011;65651;53.154;17.916;2023-05-07T01:27:05;13.70;;;9.70;;
76725;SDS011;65651;53.154;17.916;2023-05-07T01:29:32;14.30;;;9.50;;
76725;SDS011;65651;53.154;17.916;2023-05-07T01:32:00;17.70;;;11.60;;
76725;SDS011;65651;53.154;17.916;2023-05-07T01:34:28;11.90;;;8.10;;
76725;SDS011;65651;53.154;17.916;2023-05-07T01:36:58;15.60;;;10.30;;
76725;SDS011;65651;53.154;17.916;2023-05-07T01:39:27;13.70;;;9.70;;
76725;SDS011;65651;53.154;17.916;2023-05-07T01:41:56;15.30;;;10.20;;
76725;SDS011;65651;53.154;17.916;2023-05-07T01:44:26;16.30;;;10.60;;
76725;SDS011;65651;53.154;17.916;2023-05-07T01:46:54;13.20;;;9.70;;
76725;SDS011;65651;53.154;17.916;2023-05-07T01:49:26;15.60;;;9.70;;
76725;SDS011;65651;53.154;17.916;2023-05-07T01:51:53;14.80;;;9.90;;
76725;SDS011;65651;53.154;17.916;2023-05-07T01:54:25;14.10;;;9.40;;
76725;SDS011;65651;53.154;17.916;2023-05-07T01:56:57;12.70;;;8.30;;
76725;SDS011;65651;53.154;17.916;2023-05-07T01:59:25;12.90;;;8.60;;
76725;SDS011;65651;53.154;17.916;2023-05-07T02:01:53;15.10;;;9.90;;
76725;SDS011;65651;53.154;17.916;2023-05-07T02:04:20;20.50;;;11.50;;
76725;SDS011;65651;53.154;17.916;2023-05-07T02:06:48;20.80;;;11.10;;
76725;SDS011;65651;53.154;17.916;2023-05-07T02:09:16;17.50;;;10.80;;
76725;SDS011;65651;53.154;17.916;2023-05-07T02:11:45;16.00;;;9.70;;
76725;SDS011;65651;53.154;17.916;2023-05-07T02:14:13;14.10;;;9.30;;
76725;SDS011;65651;53.154;17.916;2023-05-07T02:16:41;20.50;;;11.60;;
76725;SDS011;65651;53.154;17.916;2023-05-07T02:19:09;15.80;;;10.20;;
76725;SDS011;65651;53.154;17.916;2023-05-07T02:21:37;18.40;;;11.10;;
76725;SDS011;65651;53.154;17.916;2023-05-07T02:24:07;16.70;;;10.20;;
76725;SDS011;65651;53.154;17.916;2023-05-07T02:26:34;21.50;;;13.50;;
76725;SDS011;65651;53.154;17.916;2023-05-07T02:29:02;26.80;;;16.20;;
76725;SDS011;65651;53.154;17.916;2023-05-07T02:31:30;32.50;;;17.40;;
76725;SDS011;65651;53.154;17.916;2023-05-07T02:33:57;32.70;;;18.50;;
76725;SDS011;65651;53.154;17.916;2023-05-07T02:36:25;32.50;;;18.40;;
76725;SDS011;65651;53.154;17.916;2023-05-07T02:39:06;35.40;;;19.70;;
76725;SDS011;65651;53.154;17.916;2023-05-07T02:41:34;36.50;;;19.30;;
76725;SDS011;65651;53.154;17.916;2023-05-07T02:44:01;33.20;;;19.30;;
76725;SDS011;65651;53.154;17.916;2023-05-07T02:46:30;34.60;;;21.00;;
76725;SDS011;65651;53.154;17.916;2023-05-07T02:49:01;30.20;;;18.90;;
76725;SDS011;65651;53.154;17.916;2023-05-07T02:51:29;30.60;;;18.80;;
76725;SDS011;65651;53.154;17.916;2023-05-07T02:53:58;28.70;;;17.10;;
76725;SDS011;65651;53.154;17.916;2023-05-07T02:56:28;28.80;;;17.60;;
76725;SDS011;65651;53.154;17.916;2023-05-07T02:58:55;29.40;;;17.20;;
76725;SDS011;65651;53.154;17.916;2023-05-07T03:01:24;26.80;;;17.10;;
76725;SDS011;65651;53.154;17.916;2023-05-07T03:04:04;24.90;;;15.10;;
76725;SDS011;65651;53.154;17.916;2023-05-07T03:06:31;26.50;;;16.60;;
76725;SDS011;65651;53.154;17.916;2023-05-07T03:08:59;24.60;;;14.80;;
76725;SDS011;65651;53.154;17.916;2023-05-07T03:11:26;21.70;;;13.60;;
76725;SDS011;65651;53.154;17.916;2023-05-07T03:13:54;22.10;;;14.30;;
76725;SDS011;65651;53.154;17.916;2023-05-07T03:16:21;29.40;;;14.70;;
76725;SDS011;65651;53.154;17.916;2023-05-07T03:18:49;24.40;;;13.30;;
76725;SDS011;65651;53.154;17.916;2023-05-07T03:21:16;21.80;;;14.30;;
76725;SDS011;65651;53.154;17.916;2023-05-07T03:23:45;21.80;;;12.60;;
76725;SDS011;65651;53.154;17.916;2023-05-07T03:26:12;19.80;;;12.90;;
76725;SDS011;65651;53.154;17.916;2023-05-07T03:28:39;19.50;;;12.70;;
76725;SDS011;65651;53.154;17.916;2023-05-07T03:31:10;21.20;;;11.70;;
76725;SDS011;65651;53.154;17.916;2023-05-07T03:33:42;16.70;;;11.60;;
76725;SDS011;65651;53.154;17.916;2023-05-07T03:36:24;22.60;;;11.60;;
76725;SDS011;65651;53.154;17.916;2023-05-07T03:38:53;18.00;;;11.50;;
76725;SDS011;65651;53.154;17.916;2023-05-07T03:41:23;20.40;;;11.50;;
76725;SDS011;65651;53.154;17.916;2023-05-07T03:43:50;20.10;;;10.20;;
76725;SDS011;65651;53.154;17.916;2023-05-07T03:46:18;18.50;;;10.80;;
76725;SDS011;65651;53.154;17.916;2023-05-07T03:48:48;19.50;;;11.40;;
76725;SDS011;65651;53.154;17.916;2023-05-07T03:51:19;19.50;;;9.80;;
76725;SDS011;65651;53.154;17.916;2023-05-07T03:53:47;19.80;;;10.20;;
76725;SDS011;65651;53.154;17.916;2023-05-07T03:56:14;19.90;;;9.10;;
76725;SDS011;65651;53.154;17.916;2023-05-07T03:58:42;14.90;;;10.40;;
76725;SDS011;65651;53.154;17.916;2023-05-07T04:01:11;17.90;;;10.80;;
76725;SDS011;65651;53.154;17.916;2023-05-07T04:03:38;17.20;;;10.40;;
76725;SDS011;65651;53.154;17.916;2023-05-07T04:06:06;17.00;;;10.50;;
76725;SDS011;65651;53.154;17.916;2023-05-07T04:08:35;12.90;;;8.20;;
76725;SDS011;65651;53.154;17.916;2023-05-07T04:11:02;19.50;;;10.20;;
76725;SDS011;65651;53.154;17.916;2023-05-07T04:13:31;19.70;;;10.10;;
76725;SDS011;65651;53.154;17.916;2023-05-07T04:16:00;14.20;;;8.80;;
76725;SDS011;65651;53.154;17.916;2023-05-07T04:18:29;11.20;;;7.90;;
76725;SDS011;65651;53.154;17.916;2023-05-07T04:20:56;11.70;;;8.50;;
76725;SDS011;65651;53.154;17.916;2023-05-07T04:23:24;11.20;;;7.90;;
76725;SDS011;65651;53.154;17.916;2023-05-07T04:25:51;12.60;;;8.40;;
76725;SDS011;65651;53.154;17.916;2023-05-07T04:28:30;12.10;;;8.10;;
76725;SDS011;65651;53.154;17.916;2023-05-07T04:30:58;11.40;;;8.10;;
76725;SDS011;65651;53.154;17.916;2023-05-07T04:33:28;10.40;;;7.30;;
76725;SDS011;65651;53.154;17.916;2023-05-07T04:35:56;11.30;;;8.40;;
76725;SDS011;65651;53.154;17.916;2023-05-07T04:38:24;9.50;;;7.40;;
76725;SDS011;65651;53.154;17.916;2023-05-07T04:40:51;11.20;;;8.00;;
76725;SDS011;65651;53.154;17.916;2023-05-07T04:43:21;10.80;;;7.20;;
76725;SDS011;65651;53.154;17.916;2023-05-07T04:45:50;8.20;;;6.90;;
76725;SDS011;65651;53.154;17.916;2023-05-07T04:48:19;10.10;;;7.90;;
76725;SDS011;65651;53.154;17.916;2023-05-07T04:50:49;8.80;;;7.00;;
76725;SDS011;65651;53.154;17.916;2023-05-07T04:53:17;8.30;;;7.30;;
76725;SDS011;65651;53.154;17.916;2023-05-07T04:55:45;8.50;;;6.60;;
76725;SDS011;65651;53.154;17.916;2023-05-07T04:58:13;8.40;;;7.10;;
76725;SDS011;65651;53.154;17.916;2023-05-07T05:00:40;8.20;;;7.20;;
76725;SDS011;65651;53.154;17.916;2023-05-07T05:03:09;7.30;;;6.60;;
76725;SDS011;65651;53.154;17.916;2023-05-07T05:05:38;11.80;;;8.90;;
76725;SDS011;65651;53.154;17.916;2023-05-07T05:08:08;7.60;;;6.60;;
76725;SDS011;65651;53.154;17.916;2023-05-07T05:10:38;10.00;;;7.40;;
76725;SDS011;65651;53.154;17.916;2023-05-07T05:13:06;7.50;;;6.80;;
76725;SDS011;65651;53.154;17.916;2023-05-07T05:15:33;10.60;;;7.40;;
76725;SDS011;65651;53.154;17.916;2023-05-07T05:18:01;8.00;;;7.20;;
76725;SDS011;65651;53.154;17.916;2023-05-07T05:20:32;10.60;;;7.50;;
76725;SDS011;65651;53.154;17.916;2023-05-07T05:22:59;8.90;;;7.40;;
76725;SDS011;65651;53.154;17.916;2023-05-07T05:25:28;8.70;;;6.20;;
76725;SDS011;65651;53.154;17.916;2023-05-07T05:27:56;7.70;;;6.90;;
76725;SDS011;65651;53.154;17.916;2023-05-07T05:30:23;7.80;;;7.00;;
76725;SDS011;65651;53.154;17.916;2023-05-07T05:32:51;9.30;;;7.30;;
76725;SDS011;65651;53.154;17.916;2023-05-07T05:35:18;8.00;;;6.80;;
76725;SDS011;65651;53.154;17.916;2023-05-07T05:37:46;11.30;;;7.40;;
76725;SDS011;65651;53.154;17.916;2023-05-07T05:40:14;7.80;;;7.10;;
76725;SDS011;65651;53.154;17.916;2023-05-07T05:42:44;9.30;;;6.30;;
76725;SDS011;65651;53.154;17.916;2023-05-07T05:45:12;10.70;;;8.20;;
76725;SDS011;65651;53.154;17.916;2023-05-07T05:47:40;9.10;;;6.60;;
76725;SDS011;65651;53.154;17.916;2023-05-07T05:50:08;8.10;;;7.10;;
76725;SDS011;65651;53.154;17.916;2023-05-07T05:52:36;8.00;;;6.60;;
76725;SDS011;65651;53.154;17.916;2023-05-07T05:55:03;9.10;;;7.40;;
76725;SDS011;65651;53.154;17.916;2023-05-07T05:57:31;9.80;;;7.20;;
76725;SDS011;65651;53.154;17.916;2023-05-07T05:59:59;8.30;;;7.30;;
76725;SDS011;65651;53.154;17.916;2023-05-07T06:02:28;7.80;;;6.80;;
76725;SDS011;65651;53.154;17.916;2023-05-07T06:04:55;8.20;;;7.40;;
76725;SDS011;65651;53.154;17.916;2023-05-07T06:07:25;7.30;;;6.50;;
76725;SDS011;65651;53.154;17.916;2023-05-07T06:09:52;10.50;;;7.10;;
76725;SDS011;65651;53.154;17.916;2023-05-07T06:12:20;8.60;;;6.90;;
76725;SDS011;65651;53.154;17.916;2023-05-07T06:14:48;10.70;;;6.50;;
76725;SDS011;65651;53.154;17.916;2023-05-07T06:17:16;8.10;;;7.00;;
76725;SDS011;65651;53.154;17.916;2023-05-07T06:19:44;7.70;;;6.90;;
76725;SDS011;65651;53.154;17.916;2023-05-07T06:22:11;6.60;;;6.00;;
76725;SDS011;65651;53.154;17.916;2023-05-07T06:24:39;11.40;;;6.40;;
76725;SDS011;65651;53.154;17.916;2023-05-07T06:27:07;5.70;;;5.20;;
76725;SDS011;65651;53.154;17.916;2023-05-07T06:29:34;6.60;;;5.50;;
76725;SDS011;65651;53.154;17.916;2023-05-07T06:32:19;7.30;;;5.50;;
76725;SDS011;65651;53.154;17.916;2023-05-07T06:34:50;7.80;;;5.70;;
76725;SDS011;65651;53.154;17.916;2023-05-07T06:37:17;6.30;;;5.60;;
76725;SDS011;65651;53.154;17.916;2023-05-07T06:39:59;6.30;;;5.70;;
76725;SDS011;65651;53.154;17.916;2023-05-07T06:42:27;6.10;;;5.40;;
76725;SDS011;65651;53.154;17.916;2023-05-07T06:44:58;6.50;;;5.20;;
76725;SDS011;65651;53.154;17.916;2023-05-07T06:47:26;6.40;;;5.00;;
76725;SDS011;65651;53.154;17.916;2023-05-07T06:49:55;7.00;;;5.00;;
76725;SDS011;65651;53.154;17.916;2023-05-07T06:52:24;4.90;;;4.30;;
76725;SDS011;65651;53.154;17.916;2023-05-07T06:54:52;4.80;;;4.10;;
76725;SDS011;65651;53.154;17.916;2023-05-07T06:57:20;4.10;;;3.70;;
76725;SDS011;65651;53.154;17.916;2023-05-07T06:59:48;5.10;;;4.60;;
76725;SDS011;65651;53.154;17.916;2023-05-07T07:02:15;6.20;;;4.10;;
76725;SDS011;65651;53.154;17.916;2023-05-07T07:04:43;4.10;;;3.70;;
76725;SDS011;65651;53.154;17.916;2023-05-07T07:07:11;8.30;;;4.40;;
76725;SDS011;65651;53.154;17.916;2023-05-07T07:09:39;5.60;;;4.60;;
76725;SDS011;65651;53.154;17.916;2023-05-07T07:12:07;5.90;;;4.50;;
76725;SDS011;65651;53.154;17.916;2023-05-07T07:14:37;6.00;;;4.60;;
76725;SDS011;65651;53.154;17.916;2023-05-07T07:17:04;6.30;;;4.70;;
76725;SDS011;65651;53.154;17.916;2023-05-07T07:19:32;5.70;;;4.20;;
76725;SDS011;65651;53.154;17.916;2023-05-07T07:21:59;7.00;;;4.90;;
76725;SDS011;65651;53.154;17.916;2023-05-07T07:24:27;7.30;;;5.20;;
76725;SDS011;65651;53.154;17.916;2023-05-07T07:26:57;6.60;;;4.70;;
76725;SDS011;65651;53.154;17.916;2023-05-07T07:29:24;6.50;;;4.40;;
76725;SDS011;65651;53.154;17.916;2023-05-07T07:31:53;6.30;;;4.00;;
76725;SDS011;65651;53.154;17.916;2023-05-07T07:34:21;7.40;;;4.30;;
76725;SDS011;65651;53.154;17.916;2023-05-07T07:36:48;9.80;;;4.60;;
76725;SDS011;65651;53.154;17.916;2023-05-07T07:39:17;5.90;;;3.90;;
76725;SDS011;65651;53.154;17.916;2023-05-07T07:41:48;5.50;;;4.00;;
76725;SDS011;65651;53.154;17.916;2023-05-07T07:44:16;4.70;;;3.90;;
76725;SDS011;65651;53.154;17.916;2023-05-07T07:46:47;3.60;;;3.10;;
76725;SDS011;65651;53.154;17.916;2023-05-07T07:49:15;4.50;;;4.10;;
76725;SDS011;65651;53.154;17.916;2023-05-07T07:51:42;5.60;;;3.80;;
76725;SDS011;65651;53.154;17.916;2023-05-07T07:54:11;8.10;;;4.30;;
76725;SDS011;65651;53.154;17.916;2023-05-07T07:56:39;5.10;;;3.80;;
76725;SDS011;65651;53.154;17.916;2023-05-07T07:59:07;4.80;;;4.10;;
76725;SDS011;65651;53.154;17.916;2023-05-07T08:01:35;3.90;;;3.20;;
76725;SDS011;65651;53.154;17.916;2023-05-07T08:04:02;4.00;;;3.60;;
76725;SDS011;65651;53.154;17.916;2023-05-07T08:06:30;3.60;;;2.50;;
76725;SDS011;65651;53.154;17.916;2023-05-07T08:08:57;6.00;;;3.70;;
76725;SDS011;65651;53.154;17.916;2023-05-07T08:11:25;3.60;;;3.20;;
76725;SDS011;65651;53.154;17.916;2023-05-07T08:13:53;5.30;;;3.20;;
76725;SDS011;65651;53.154;17.916;2023-05-07T08:16:21;3.20;;;2.50;;
76725;SDS011;65651;53.154;17.916;2023-05-07T08:18:49;3.20;;;2.30;;
76725;SDS011;65651;53.154;17.916;2023-05-07T08:21:17;5.30;;;2.70;;
76725;SDS011;65651;53.154;17.916;2023-05-07T08:23:44;6.80;;;2.50;;
76725;SDS011;65651;53.154;17.916;2023-05-07T08:26:11;4.10;;;2.30;;
76725;SDS011;65651;53.154;17.916;2023-05-07T08:28:39;6.50;;;3.30;;
76725;SDS011;65651;53.154;17.916;2023-05-07T08:31:06;5.90;;;3.00;;
76725;SDS011;65651;53.154;17.916;2023-05-07T08:33:36;4.20;;;2.50;;
76725;SDS011;65651;53.154;17.916;2023-05-07T08:36:05;7.40;;;3.10;;
76725;SDS011;65651;53.154;17.916;2023-05-07T08:38:35;7.10;;;4.30;;
76725;SDS011;65651;53.154;17.916;2023-05-07T08:41:02;4.10;;;3.10;;
76725;SDS011;65651;53.154;17.916;2023-05-07T08:43:31;2.90;;;2.40;;
76725;SDS011;65651;53.154;17.916;2023-05-07T08:46:00;4.00;;;2.20;;
76725;SDS011;65651;53.154;17.916;2023-05-07T08:48:33;3.50;;;2.60;;
76725;SDS011;65651;53.154;17.916;2023-05-07T08:51:06;3.70;;;2.80;;
76725;SDS011;65651;53.154;17.916;2023-05-07T08:53:35;3.20;;;2.40;;
76725;SDS011;65651;53.154;17.916;2023-05-07T08:56:08;4.10;;;2.50;;
76725;SDS011;65651;53.154;17.916;2023-05-07T08:58:36;4.10;;;2.20;;
76725;SDS011;65651;53.154;17.916;2023-05-07T09:01:08;5.30;;;2.60;;
76725;SDS011;65651;53.154;17.916;2023-05-07T09:03:38;4.10;;;2.60;;
76725;SDS011;65651;53.154;17.916;2023-05-07T09:06:06;3.90;;;2.10;;
76725;SDS011;65651;53.154;17.916;2023-05-07T09:08:36;3.80;;;2.20;;
76725;SDS011;65651;53.154;17.916;2023-05-07T09:11:05;4.00;;;2.60;;
76725;SDS011;65651;53.154;17.916;2023-05-07T09:13:32;3.30;;;2.40;;
76725;SDS011;65651;53.154;17.916;2023-05-07T09:16:09;3.10;;;2.60;;
76725;SDS011;65651;53.154;17.916;2023-05-07T09:18:42;2.50;;;2.10;;
76725;SDS011;65651;53.154;17.916;2023-05-07T09:21:12;4.60;;;2.10;;
76725;SDS011;65651;53.154;17.916;2023-05-07T09:23:42;4.40;;;2.50;;
76725;SDS011;65651;53.154;17.916;2023-05-07T09:26:10;2.90;;;2.20;;
76725;SDS011;65651;53.154;17.916;2023-05-07T09:28:41;5.70;;;2.10;;
76725;SDS011;65651;53.154;17.916;2023-05-07T09:31:10;5.00;;;1.80;;
76725;SDS011;65651;53.154;17.916;2023-05-07T09:33:38;4.00;;;2.70;;
76725;SDS011;65651;53.154;17.916;2023-05-07T09:36:08;3.40;;;2.60;;
76725;SDS011;65651;53.154;17.916;2023-05-07T09:38:37;2.70;;;1.50;;
76725;SDS011;65651;53.154;17.916;2023-05-07T09:41:06;4.50;;;2.20;;
76725;SDS011;65651;53.154;17.916;2023-05-07T09:44:03;3.20;;;1.70;;
76725;SDS011;65651;53.154;17.916;2023-05-07T09:46:36;2.80;;;1.60;;
76725;SDS011;65651;53.154;17.916;2023-05-07T09:49:11;6.10;;;2.00;;
76725;SDS011;65651;53.154;17.916;2023-05-07T09:51:46;5.10;;;2.20;;
76725;SDS011;65651;53.154;17.916;2023-05-07T09:54:17;4.30;;;2.20;;
76725;SDS011;65651;53.154;17.916;2023-05-07T09:56:47;2.30;;;1.80;;
76725;SDS011;65651;53.154;17.916;2023-05-07T09:59:19;3.30;;;2.00;;
76725;SDS011;65651;53.154;17.916;2023-05-07T10:01:48;5.30;;;2.40;;
76725;SDS011;65651;53.154;17.916;2023-05-07T10:04:19;4.00;;;2.40;;
76725;SDS011;65651;53.154;17.916;2023-05-07T10:06:48;3.80;;;3.30;;
76725;SDS011;65651;53.154;17.916;2023-05-07T10:09:16;3.30;;;2.60;;
76725;SDS011;65651;53.154;17.916;2023-05-07T10:11:44;4.60;;;3.10;;
76725;SDS011;65651;53.154;17.916;2023-05-07T10:14:13;3.90;;;2.90;;
76725;SDS011;65651;53.154;17.916;2023-05-07T10:16:41;5.30;;;3.40;;
76725;SDS011;65651;53.154;17.916;2023-05-07T10:19:12;3.30;;;2.70;;
76725;SDS011;65651;53.154;17.916;2023-05-07T10:21:44;4.70;;;2.80;;
76725;SDS011;65651;53.154;17.916;2023-05-07T10:24:29;4.00;;;2.60;;
76725;SDS011;65651;53.154;17.916;2023-05-07T10:27:04;3.20;;;2.60;;
76725;SDS011;65651;53.154;17.916;2023-05-07T10:30:20;5.20;;;3.10;;
76725;SDS011;65651;53.154;17.916;2023-05-07T10:35:06;5.30;;;2.90;;
76725;SDS011;65651;53.154;17.916;2023-05-07T10:37:45;5.30;;;3.50;;
76725;SDS011;65651;53.154;17.916;2023-05-07T10:40:13;4.50;;;3.20;;
76725;SDS011;65651;53.154;17.916;2023-05-07T10:42:57;5.20;;;3.20;;
76725;SDS011;65651;53.154;17.916;2023-05-07T10:45:33;5.30;;;2.50;;
76725;SDS011;65651;53.154;17.916;2023-05-07T10:50:44;6.40;;;3.20;;
76725;SDS011;65651;53.154;17.916;2023-05-07T10:58:51;2.60;;;2.10;;
76725;SDS011;65651;53.154;17.916;2023-05-07T11:08:17;5.90;;;2.70;;
76725;SDS011;65651;53.154;17.916;2023-05-07T11:10:57;4.70;;;3.20;;
76725;SDS011;65651;53.154;17.916;2023-05-07T11:13:43;6.20;;;3.20;;
76725;SDS011;65651;53.154;17.916;2023-05-07T11:18:48;5.10;;;2.80;;
76725;SDS011;65651;53.154;17.916;2023-05-07T11:24:21;4.40;;;2.70;;
76725;SDS011;65651;53.154;17.916;2023-05-07T11:26:54;3.60;;;2.60;;
76725;SDS011;65651;53.154;17.916;2023-05-07T11:29:24;3.50;;;2.40;;
76725;SDS011;65651;53.154;17.916;2023-05-07T11:31:58;4.70;;;2.70;;
76725;SDS011;65651;53.154;17.916;2023-05-07T11:34:30;6.60;;;1.90;;
76725;SDS011;65651;53.154;17.916;2023-05-07T11:36:58;5.40;;;2.70;;
76725;SDS011;65651;53.154;17.916;2023-05-07T11:39:38;3.50;;;2.40;;
76725;SDS011;65651;53.154;17.916;2023-05-07T11:42:05;5.70;;;3.10;;
76725;SDS011;65651;53.154;17.916;2023-05-07T11:44:40;5.20;;;2.40;;
76725;SDS011;65651;53.154;17.916;2023-05-07T11:47:10;2.80;;;1.60;;
76725;SDS011;65651;53.154;17.916;2023-05-07T11:49:38;4.30;;;2.60;;
76725;SDS011;65651;53.154;17.916;2023-05-07T11:52:07;4.90;;;2.10;;
76725;SDS011;65651;53.154;17.916;2023-05-07T11:54:35;4.40;;;2.70;;
76725;SDS011;65651;53.154;17.916;2023-05-07T11:57:06;3.40;;;2.40;;
76725;SDS011;65651;53.154;17.916;2023-05-07T11:59:40;3.10;;;2.50;;
76725;SDS011;65651;53.154;17.916;2023-05-07T12:02:07;7.40;;;4.20;;
76725;SDS011;65651;53.154;17.916;2023-05-07T12:04:35;3.60;;;1.90;;
76725;SDS011;65651;53.154;17.916;2023-05-07T12:07:04;4.80;;;2.30;;
76725;SDS011;65651;53.154;17.916;2023-05-07T12:09:35;2.20;;;1.30;;
76725;SDS011;65651;53.154;17.916;2023-05-07T12:12:04;6.70;;;2.60;;
76725;SDS011;65651;53.154;17.916;2023-05-07T12:14:31;2.70;;;1.80;;
76725;SDS011;65651;53.154;17.916;2023-05-07T12:17:00;3.00;;;1.70;;
76725;SDS011;65651;53.154;17.916;2023-05-07T12:19:30;3.00;;;2.30;;
76725;SDS011;65651;53.154;17.916;2023-05-07T12:21:57;2.80;;;2.20;;
76725;SDS011;65651;53.154;17.916;2023-05-07T12:24:25;4.30;;;2.30;;
76725;SDS011;65651;53.154;17.916;2023-05-07T12:26:52;3.10;;;2.10;;
76725;SDS011;65651;53.154;17.916;2023-05-07T12:29:23;6.40;;;2.20;;
76725;SDS011;65651;53.154;17.916;2023-05-07T12:31:50;4.70;;;2.40;;
76725;SDS011;65651;53.154;17.916;2023-05-07T12:34:18;4.90;;;2.10;;
76725;SDS011;65651;53.154;17.916;2023-05-07T12:36:46;4.00;;;1.70;;
76725;SDS011;65651;53.154;17.916;2023-05-07T12:39:15;2.60;;;1.80;;
76725;SDS011;65651;53.154;17.916;2023-05-07T12:41:56;6.50;;;2.30;;
76725;SDS011;65651;53.154;17.916;2023-05-07T12:44:31;3.90;;;2.20;;
76725;SDS011;65651;53.154;17.916;2023-05-07T12:47:02;4.10;;;1.60;;
76725;SDS011;65651;53.154;17.916;2023-05-07T12:49:30;5.30;;;1.70;;
76725;SDS011;65651;53.154;17.916;2023-05-07T12:51:58;5.00;;;2.00;;
76725;SDS011;65651;53.154;17.916;2023-05-07T12:57:10;7.70;;;3.50;;
76725;SDS011;65651;53.154;17.916;2023-05-07T12:59:38;8.20;;;2.30;;
76725;SDS011;65651;53.154;17.916;2023-05-07T13:02:09;4.10;;;2.30;;
76725;SDS011;65651;53.154;17.916;2023-05-07T13:04:40;4.20;;;1.80;;
76725;SDS011;65651;53.154;17.916;2023-05-07T13:07:08;6.90;;;1.80;;
76725;SDS011;65651;53.154;17.916;2023-05-07T13:09:35;3.40;;;2.10;;
76725;SDS011;65651;53.154;17.916;2023-05-07T13:12:03;5.20;;;2.20;;
76725;SDS011;65651;53.154;17.916;2023-05-07T13:14:31;4.70;;;2.10;;
76725;SDS011;65651;53.154;17.916;2023-05-07T13:17:01;2.60;;;1.40;;
76725;SDS011;65651;53.154;17.916;2023-05-07T13:19:31;3.40;;;2.30;;
76725;SDS011;65651;53.154;17.916;2023-05-07T13:21:59;3.80;;;2.20;;
76725;SDS011;65651;53.154;17.916;2023-05-07T13:24:26;7.60;;;2.20;;
76725;SDS011;65651;53.154;17.916;2023-05-07T13:26:53;4.60;;;1.60;;
76725;SDS011;65651;53.154;17.916;2023-05-07T13:29:21;4.10;;;1.90;;
76725;SDS011;65651;53.154;17.916;2023-05-07T13:31:56;3.60;;;1.50;;
76725;SDS011;65651;53.154;17.916;2023-05-07T13:34:24;4.20;;;1.60;;
76725;SDS011;65651;53.154;17.916;2023-05-07T13:36:52;4.50;;;1.60;;
76725;SDS011;65651;53.154;17.916;2023-05-07T13:39:19;3.60;;;1.80;;
76725;SDS011;65651;53.154;17.916;2023-05-07T13:41:47;3.10;;;1.60;;
76725;SDS011;65651;53.154;17.916;2023-05-07T13:44:14;3.60;;;1.80;;
76725;SDS011;65651;53.154;17.916;2023-05-07T13:46:42;3.40;;;2.20;;
76725;SDS011;65651;53.154;17.916;2023-05-07T13:49:09;2.40;;;1.80;;
76725;SDS011;65651;53.154;17.916;2023-05-07T13:51:37;4.80;;;1.80;;
76725;SDS011;65651;53.154;17.916;2023-05-07T13:54:05;3.90;;;1.70;;
76725;SDS011;65651;53.154;17.916;2023-05-07T13:56:32;3.50;;;2.00;;
76725;SDS011;65651;53.154;17.916;2023-05-07T13:58:59;3.20;;;1.50;;
76725;SDS011;65651;53.154;17.916;2023-05-07T14:01:27;2.80;;;1.70;;
76725;SDS011;65651;53.154;17.916;2023-05-07T14:03:55;2.80;;;1.60;;
76725;SDS011;65651;53.154;17.916;2023-05-07T14:06:24;3.20;;;1.80;;
76725;SDS011;65651;53.154;17.916;2023-05-07T14:08:52;4.60;;;2.00;;
76725;SDS011;65651;53.154;17.916;2023-05-07T14:11:20;4.50;;;2.20;;
76725;SDS011;65651;53.154;17.916;2023-05-07T14:13:47;3.00;;;1.60;;
76725;SDS011;65651;53.154;17.916;2023-05-07T14:16:15;3.80;;;1.70;;
76725;SDS011;65651;53.154;17.916;2023-05-07T14:18:42;3.70;;;1.20;;
76725;SDS011;65651;53.154;17.916;2023-05-07T14:21:10;2.60;;;1.30;;
76725;SDS011;65651;53.154;17.916;2023-05-07T14:23:37;2.60;;;1.70;;
76725;SDS011;65651;53.154;17.916;2023-05-07T14:26:04;3.80;;;1.30;;
76725;SDS011;65651;53.154;17.916;2023-05-07T14:28:32;2.60;;;1.50;;
76725;SDS011;65651;53.154;17.916;2023-05-07T14:30:59;2.80;;;1.60;;
76725;SDS011;65651;53.154;17.916;2023-05-07T14:33:26;2.70;;;1.60;;
76725;SDS011;65651;53.154;17.916;2023-05-07T14:35:54;2.60;;;1.50;;
76725;SDS011;65651;53.154;17.916;2023-05-07T14:38:21;4.30;;;1.20;;
76725;SDS011;65651;53.154;17.916;2023-05-07T14:40:49;2.70;;;1.20;;
76725;SDS011;65651;53.154;17.916;2023-05-07T14:43:16;3.00;;;1.90;;
76725;SDS011;65651;53.154;17.916;2023-05-07T14:45:44;3.80;;;1.30;;
76725;SDS011;65651;53.154;17.916;2023-05-07T14:48:12;3.00;;;1.60;;
76725;SDS011;65651;53.154;17.916;2023-05-07T14:50:42;3.70;;;1.60;;
76725;SDS011;65651;53.154;17.916;2023-05-07T14:53:09;4.80;;;1.90;;
76725;SDS011;65651;53.154;17.916;2023-05-07T14:55:36;3.10;;;2.10;;
76725;SDS011;65651;53.154;17.916;2023-05-07T14:58:07;3.90;;;1.90;;
76725;SDS011;65651;53.154;17.916;2023-05-07T15:00:34;3.30;;;1.50;;
76725;SDS011;65651;53.154;17.916;2023-05-07T15:03:05;1.60;;;1.00;;